KGRB

Green Bay-Austin Straubel International Airport

Green Bay, Wisconsin, USA
METAR KGRB 230053Z 27007KT 10SM CLR 08/01 A2996 RMK AO2 SLP153 T00830006
Observed Flight Rules
Oct-23 @ 00:53 UTC (8 minutes ago) Visual Flight Rules
Wind Visibility Clouds
270° at 7 knots 10 miles
  • Clear skies
Temperatures Readings
Current 8°C / 46°F
Dewpoint 1°C / 34°F
Humidity 62%
Altimeter 29.96" Hg
Pressure 1015.3 hPa
Elevation 208
METAR KGRB 230053Z 27007KT 10SM CLR 08/01 A2996 RMK AO2 SLP153 T00830006
Observed Flight Rules
Oct-23 @ 00:53 UTC
(8 minutes ago)
VFR
Wind Visibility
270° at 7 knots 10 miles
Clouds
  • Clear skies
Temperature Dewpoint
8°C / 46°F 1°C / 34°F
Humidity Altimeter Pressure
62% 29.96" Hg 1015.3 hPa